Time;durP1;ratioP1;P1;durP2;ratioP2;P2;SDS_P1;SDS_P2;PMS_P1;PMS_P2;Temp;Humidity;BMP_temperature;BMP_pressure;BME280_temperature;BME280_humidity;BME280_pressure;Samples;Min_cycle;Max_cycle;Signal;HPM_P1;HPM_P2
2022/03/03 00:01:54;;;;;;;35.30;22.17;;;;;;;;;;5032677;28;20202;-86
2022/03/03 00:04:20;;;;;;;31.30;20.93;;;;;;;;;;5050132;28;20186;-86
2022/03/03 00:06:46;;;;;;;29.60;21.10;;;;;;;;;;5033244;28;20267;-86
2022/03/03 00:09:12;;;;;;;32.73;21.90;;;;;;;;;;5050661;28;20181;-86
2022/03/03 00:11:38;;;;;;;30.97;20.53;;;;;;;;;;5049941;28;20212;-86
2022/03/03 00:14:05;;;;;;;33.77;22.13;;;;;;;;;;5049024;28;20748;-86
2022/03/03 00:16:31;;;;;;;34.43;22.13;;;;;;;;;;5050497;28;20190;-85
2022/03/03 00:18:57;;;;;;;35.80;21.87;;;;;;;;;;5050107;28;20171;-86
2022/03/03 00:21:23;;;;;;;32.97;21.60;;;;;;;;;;5032255;28;20225;-85
2022/03/03 00:23:49;;;;;;;33.13;22.73;;;;;;;;;;5031275;28;20610;-86
2022/03/03 00:26:15;;;;;;;34.70;22.60;;;;;;;;;;5049820;28;20207;-84
2022/03/03 00:28:42;;;;;;;38.30;23.47;;;;;;;;;;5049207;28;20194;-85
2022/03/03 00:31:08;;;;;;;36.67;22.87;;;;;;;;;;5031448;28;20192;-84
2022/03/03 00:33:34;;;;;;;38.43;23.40;;;;;;;;;;5049104;28;20185;-84
2022/03/03 00:36:00;;;;;;;34.60;21.80;;;;;;;;;;5048385;28;20171;-84
2022/03/03 00:38:26;;;;;;;36.97;23.20;;;;;;;;;;5048463;28;20197;-84
2022/03/03 00:40:52;;;;;;;36.97;23.77;;;;;;;;;;5030439;28;20233;-84
2022/03/03 00:43:19;;;;;;;34.60;22.33;;;;;;;;;;5048168;28;20193;-84
2022/03/03 00:45:45;;;;;;;31.87;21.57;;;;;;;;;;5026580;28;20259;-85
2022/03/03 00:48:11;;;;;;;33.73;22.83;;;;;;;;;;5036729;28;20238;-84
2022/03/03 00:50:37;;;;;;;33.70;21.90;;;;;;;;;;5047996;28;20590;-84
2022/03/03 00:53:03;;;;;;;34.37;22.53;;;;;;;;;;5046788;28;20187;-86
2022/03/03 00:55:29;;;;;;;38.07;23.17;;;;;;;;;;5028261;28;20190;-84
2022/03/03 00:57:55;;;;;;;31.43;21.20;;;;;;;;;;5028935;28;20178;-84
2022/03/03 01:00:21;;;;;;;34.87;23.10;;;;;;;;;;5028313;28;20224;-85
2022/03/03 01:02:48;;;;;;;33.73;21.80;;;;;;;;;;5047449;28;20189;-84
2022/03/03 01:05:15;;;;;;;33.90;21.57;;;;;;;;;;5030544;28;20577;-84
2022/03/03 01:07:41;;;;;;;32.53;22.03;;;;;;;;;;5047768;28;20195;-83
2022/03/03 01:10:08;;;;;;;34.53;21.37;;;;;;;;;;5048487;28;20678;-84
2022/03/03 01:12:34;;;;;;;35.43;22.13;;;;;;;;;;5047659;28;20183;-84
2022/03/03 01:15:00;;;;;;;33.03;21.67;;;;;;;;;;5049045;28;20614;-84
2022/03/03 01:17:26;;;;;;;35.53;21.40;;;;;;;;;;5047629;28;20188;-84
2022/03/03 01:19:52;;;;;;;31.23;20.13;;;;;;;;;;5040437;28;20265;-84
2022/03/03 01:22:18;;;;;;;34.87;21.60;;;;;;;;;;5029155;28;20560;-84
2022/03/03 01:24:45;;;;;;;34.73;21.27;;;;;;;;;;5028184;28;20206;-84
2022/03/03 01:27:11;;;;;;;31.10;20.80;;;;;;;;;;5041677;28;20250;-84
2022/03/03 01:29:38;;;;;;;30.50;21.00;;;;;;;;;;5036796;28;20174;-84
2022/03/03 01:32:05;;;;;;;34.33;21.37;;;;;;;;;;5045687;28;20194;-83
2022/03/03 01:34:31;;;;;;;32.33;20.33;;;;;;;;;;5044818;28;20278;-83
2022/03/03 01:36:57;;;;;;;32.97;19.93;;;;;;;;;;5025684;28;20183;-85
2022/03/03 01:39:23;;;;;;;28.83;19.97;;;;;;;;;;5029056;28;20246;-84
2022/03/03 01:41:49;;;;;;;31.57;19.93;;;;;;;;;;5046296;28;20204;-84
2022/03/03 01:44:15;;;;;;;30.23;20.73;;;;;;;;;;5028591;28;20185;-84
2022/03/03 01:46:51;;;;;;;30.50;19.37;;;;;;;;;;5027583;28;20642;-84
2022/03/03 01:49:17;;;;;;;34.03;22.03;;;;;;;;;;5045996;28;20237;-84
2022/03/03 01:51:43;;;;;;;32.13;20.60;;;;;;;;;;5027214;28;20218;-84
2022/03/03 01:54:09;;;;;;;31.50;20.63;;;;;;;;;;5045599;28;20178;-83
2022/03/03 01:56:35;;;;;;;38.13;21.63;;;;;;;;;;5044440;28;20197;-84
2022/03/03 01:59:02;;;;;;;30.40;20.30;;;;;;;;;;5044992;28;20174;-84
2022/03/03 02:01:31;;;;;;;32.40;20.83;;;;;;;;;;5022260;28;20282;-84
2022/03/03 02:03:57;;;;;;;30.30;20.10;;;;;;;;;;5026650;28;20182;-84
2022/03/03 02:06:24;;;;;;;34.47;20.37;;;;;;;;;;5045077;28;20265;-84
2022/03/03 02:08:50;;;;;;;36.50;21.27;;;;;;;;;;5044749;28;20166;-84
2022/03/03 02:11:16;;;;;;;31.90;21.00;;;;;;;;;;5044776;28;20204;-84
2022/03/03 02:13:42;;;;;;;31.90;20.03;;;;;;;;;;5046472;28;20175;-85
2022/03/03 02:16:08;;;;;;;30.87;20.40;;;;;;;;;;5026375;28;20245;-85
2022/03/03 02:18:41;;;;;;;33.47;20.87;;;;;;;;;;5025640;28;20242;-84
2022/03/03 02:21:10;;;;;;;28.67;20.47;;;;;;;;;;5046968;28;20700;-85
2022/03/03 02:23:36;;;;;;;33.53;20.70;;;;;;;;;;5029743;28;20178;-85
2022/03/03 02:26:02;;;;;;;31.37;20.73;;;;;;;;;;5047360;28;20197;-85
2022/03/03 02:28:28;;;;;;;31.20;20.67;;;;;;;;;;5030198;28;20557;-85
2022/03/03 02:30:54;;;;;;;31.60;20.23;;;;;;;;;;5047707;28;20686;-85
2022/03/03 02:33:20;;;;;;;32.20;20.67;;;;;;;;;;5047249;28;20174;-85
2022/03/03 02:35:46;;;;;;;34.07;20.03;;;;;;;;;;5046740;28;20182;-85
2022/03/03 02:38:12;;;;;;;30.80;20.53;;;;;;;;;;5047035;28;20181;-85
2022/03/03 02:40:38;;;;;;;31.47;19.73;;;;;;;;;;5028756;28;20689;-85
2022/03/03 02:43:04;;;;;;;30.03;19.87;;;;;;;;;;5045539;28;20733;-85
2022/03/03 02:45:30;;;;;;;31.60;20.10;;;;;;;;;;5028591;28;20280;-85
2022/03/03 02:47:56;;;;;;;27.93;19.17;;;;;;;;;;5029016;28;20260;-85
2022/03/03 02:50:24;;;;;;;28.77;19.57;;;;;;;;;;5046470;28;20206;-84
2022/03/03 02:52:50;;;;;;;31.50;19.17;;;;;;;;;;5046864;28;20174;-84
2022/03/03 02:55:17;;;;;;;30.80;19.93;;;;;;;;;;5028360;28;20190;-85
2022/03/03 02:57:55;;;;;;;28.23;19.70;;;;;;;;;;5029114;28;20194;-85
2022/03/03 03:00:23;;;;;;;32.90;21.13;;;;;;;;;;5027999;28;20199;-85
2022/03/03 03:02:49;;;;;;;30.00;19.23;;;;;;;;;;5027943;28;20191;-85
2022/03/03 03:05:15;;;;;;;28.40;19.00;;;;;;;;;;5026297;28;20752;-85
2022/03/03 03:07:41;;;;;;;32.33;20.60;;;;;;;;;;5045705;28;20198;-84
2022/03/03 03:10:07;;;;;;;29.40;19.87;;;;;;;;;;5045489;28;20205;-84
2022/03/03 03:12:33;;;;;;;28.47;18.97;;;;;;;;;;5045481;28;20181;-84
2022/03/03 03:14:59;;;;;;;30.00;19.53;;;;;;;;;;5029589;28;20211;-85
2022/03/03 03:17:25;;;;;;;31.43;20.27;;;;;;;;;;5040021;28;20206;-85
2022/03/03 03:19:51;;;;;;;33.00;20.27;;;;;;;;;;5026223;28;20194;-85
2022/03/03 03:22:17;;;;;;;33.57;19.93;;;;;;;;;;5043094;28;20194;-85
2022/03/03 03:27:11;;;;;;;33.93;20.67;;;;;;;;;;5023688;28;20261;-82
2022/03/03 03:29:37;;;;;;;28.10;18.90;;;;;;;;;;5025354;28;20172;-82
2022/03/03 03:32:04;;;;;;;31.87;19.13;;;;;;;;;;5024288;28;20175;-82
2022/03/03 03:34:30;;;;;;;29.30;19.67;;;;;;;;;;5025733;28;20190;-82
2022/03/03 03:36:56;;;;;;;29.50;19.07;;;;;;;;;;5023697;28;20226;-81
2022/03/03 03:39:22;;;;;;;31.63;19.43;;;;;;;;;;5024194;28;20241;-82
2022/03/03 03:41:48;;;;;;;32.70;20.83;;;;;;;;;;5023394;28;20202;-81
2022/03/03 03:44:14;;;;;;;33.10;19.97;;;;;;;;;;5024548;28;20175;-82
2022/03/03 03:46:40;;;;;;;30.00;19.80;;;;;;;;;;5025474;28;20206;-82
2022/03/03 03:49:06;;;;;;;33.80;19.17;;;;;;;;;;5025157;28;20175;-82
2022/03/03 03:51:32;;;;;;;33.80;20.67;;;;;;;;;;5024654;28;20190;-82
2022/03/03 03:53:58;;;;;;;35.47;20.47;;;;;;;;;;5026084;28;20183;-82
2022/03/03 03:56:30;;;;;;;33.77;20.77;;;;;;;;;;5023345;28;20958;-82
2022/03/03 03:58:56;;;;;;;31.07;20.70;;;;;;;;;;5018307;28;20193;-81
2022/03/03 04:01:22;;;;;;;34.87;20.73;;;;;;;;;;5023925;28;20184;-81
2022/03/03 04:03:48;;;;;;;34.47;19.83;;;;;;;;;;5024371;28;20179;-81
2022/03/03 04:06:14;;;;;;;32.03;20.23;;;;;;;;;;5023648;28;20223;-82
2022/03/03 04:08:40;;;;;;;32.77;19.30;;;;;;;;;;5022527;28;20258;-82
2022/03/03 04:11:06;;;;;;;32.50;19.63;;;;;;;;;;5022597;28;20273;-81
2022/03/03 04:13:32;;;;;;;29.47;18.80;;;;;;;;;;5022089;28;20206;-82
2022/03/03 04:15:58;;;;;;;29.27;19.53;;;;;;;;;;5023026;28;20203;-82
2022/03/03 04:18:24;;;;;;;31.23;19.50;;;;;;;;;;5022821;28;20262;-82
2022/03/03 04:20:50;;;;;;;30.47;18.70;;;;;;;;;;5021799;28;20294;-82
2022/03/03 04:23:17;;;;;;;30.53;19.70;;;;;;;;;;5023714;28;20686;-82
2022/03/03 04:25:44;;;;;;;31.27;19.87;;;;;;;;;;5023596;28;20225;-82
2022/03/03 04:28:10;;;;;;;30.67;20.50;;;;;;;;;;5022299;28;20635;-82
2022/03/03 04:30:36;;;;;;;29.27;20.20;;;;;;;;;;5034452;28;20171;-82
2022/03/03 04:33:02;;;;;;;37.77;20.27;;;;;;;;;;5035888;28;20183;-81
2022/03/03 04:35:31;;;;;;;32.73;19.83;;;;;;;;;;5030101;28;20199;-82
2022/03/03 04:37:57;;;;;;;33.17;19.83;;;;;;;;;;5020882;28;20623;-81
2022/03/03 04:40:23;;;;;;;29.10;19.77;;;;;;;;;;5023656;28;20213;-82
2022/03/03 04:42:52;;;;;;;30.53;19.40;;;;;;;;;;5023077;28;20185;-82
2022/03/03 04:45:18;;;;;;;29.23;18.87;;;;;;;;;;5024262;28;20214;-82
2022/03/03 04:47:44;;;;;;;29.97;19.97;;;;;;;;;;5022126;28;20275;-82
2022/03/03 04:50:10;;;;;;;28.80;19.27;;;;;;;;;;5023511;28;20217;-82
2022/03/03 04:52:36;;;;;;;31.77;20.20;;;;;;;;;;5023048;28;20685;-82
2022/03/03 04:55:04;;;;;;;30.83;19.47;;;;;;;;;;5022083;28;20179;-82
2022/03/03 04:57:30;;;;;;;27.90;19.27;;;;;;;;;;5006018;28;20671;-82
2022/03/03 04:59:57;;;;;;;31.80;19.30;;;;;;;;;;5023343;28;20187;-82
2022/03/03 05:02:23;;;;;;;34.30;20.77;;;;;;;;;;5020610;28;20183;-81
2022/03/03 05:04:49;;;;;;;30.40;20.00;;;;;;;;;;5017718;28;20658;-82
2022/03/03 05:07:15;;;;;;;29.00;18.97;;;;;;;;;;5003770;28;20182;-82
2022/03/03 05:09:41;;;;;;;32.13;18.77;;;;;;;;;;5021862;28;20518;-82
2022/03/03 05:12:07;;;;;;;31.13;19.93;;;;;;;;;;5020934;28;20653;-81
2022/03/03 05:14:33;;;;;;;26.83;18.73;;;;;;;;;;5021795;28;20250;-82
2022/03/03 05:16:59;;;;;;;29.07;19.00;;;;;;;;;;5021610;28;20661;-82
2022/03/03 05:19:25;;;;;;;28.87;18.67;;;;;;;;;;5022305;28;20179;-81
2022/03/03 05:21:51;;;;;;;36.27;20.40;;;;;;;;;;5020918;28;20202;-82
2022/03/03 05:24:18;;;;;;;30.17;19.30;;;;;;;;;;5021195;28;20650;-82
2022/03/03 05:26:44;;;;;;;27.70;18.03;;;;;;;;;;5020088;28;20214;-82
2022/03/03 05:29:10;;;;;;;27.20;18.63;;;;;;;;;;5022459;28;20193;-81
2022/03/03 05:31:36;;;;;;;30.77;19.33;;;;;;;;;;5021211;28;20390;-82
2022/03/03 05:34:03;;;;;;;28.63;19.43;;;;;;;;;;5021734;28;20183;-82
2022/03/03 05:36:29;;;;;;;29.93;19.77;;;;;;;;;;5021413;28;20202;-82
2022/03/03 05:38:57;;;;;;;35.80;20.67;;;;;;;;;;5022266;28;20187;-82
2022/03/03 05:41:23;;;;;;;30.13;18.90;;;;;;;;;;5021814;28;20189;-82
2022/03/03 05:43:50;;;;;;;31.53;20.53;;;;;;;;;;5019829;28;20270;-82
2022/03/03 05:46:16;;;;;;;33.10;20.00;;;;;;;;;;5021636;28;20214;-82
2022/03/03 05:48:42;;;;;;;31.27;21.20;;;;;;;;;;5019722;28;20558;-81
2022/03/03 05:51:10;;;;;;;32.60;20.10;;;;;;;;;;5012031;28;20179;-81
2022/03/03 05:53:36;;;;;;;33.67;20.17;;;;;;;;;;5019596;28;20245;-82
2022/03/03 05:56:06;;;;;;;30.97;19.70;;;;;;;;;;5019605;28;20224;-81
2022/03/03 05:58:45;;;;;;;31.17;20.40;;;;;;;;;;5020006;28;20669;-81
2022/03/03 06:01:11;;;;;;;36.30;20.60;;;;;;;;;;5022310;28;20179;-81
2022/03/03 06:03:38;;;;;;;30.87;19.77;;;;;;;;;;5021109;28;20188;-82
2022/03/03 06:06:17;;;;;;;31.73;19.27;;;;;;;;;;5021486;28;20290;-82
2022/03/03 06:09:01;;;;;;;29.93;19.37;;;;;;;;;;5022778;28;20179;-82
2022/03/03 06:11:27;;;;;;;27.23;19.47;;;;;;;;;;5024014;28;20187;-82
2022/03/03 06:13:56;;;;;;;31.90;19.67;;;;;;;;;;5026417;28;20179;-81
2022/03/03 06:16:23;;;;;;;31.97;19.33;;;;;;;;;;5020528;28;20210;-82
2022/03/03 06:18:50;;;;;;;31.87;18.67;;;;;;;;;;5016042;28;20266;-81
2022/03/03 06:21:17;;;;;;;27.27;17.60;;;;;;;;;;5015027;28;20193;-81
2022/03/03 06:23:43;;;;;;;29.97;20.17;;;;;;;;;;5014601;28;20179;-81
2022/03/03 06:26:14;;;;;;;32.30;19.13;;;;;;;;;;5013309;28;20562;-81
2022/03/03 06:28:40;;;;;;;31.70;18.57;;;;;;;;;;5029853;28;20253;-81
2022/03/03 06:31:06;;;;;;;29.10;18.83;;;;;;;;;;5010012;28;20202;-81
2022/03/03 06:33:33;;;;;;;32.13;19.50;;;;;;;;;;5016867;28;20179;-82
2022/03/03 06:35:59;;;;;;;29.53;19.43;;;;;;;;;;5015599;28;20199;-82
2022/03/03 06:38:26;;;;;;;35.03;19.97;;;;;;;;;;5016664;28;20201;-82
2022/03/03 06:40:54;;;;;;;28.60;19.20;;;;;;;;;;5016567;28;20236;-82
2022/03/03 06:43:20;;;;;;;28.50;19.00;;;;;;;;;;5015148;28;20183;-82
2022/03/03 06:45:46;;;;;;;28.60;18.47;;;;;;;;;;5014864;28;20207;-81
2022/03/03 06:48:13;;;;;;;30.00;19.83;;;;;;;;;;5014295;28;20258;-81
2022/03/03 06:50:40;;;;;;;29.63;18.67;;;;;;;;;;5015943;28;20182;-81
2022/03/03 06:53:07;;;;;;;31.90;19.30;;;;;;;;;;5015463;28;20179;-81
2022/03/03 06:55:33;;;;;;;29.90;19.77;;;;;;;;;;5013589;28;20234;-81
2022/03/03 06:57:59;;;;;;;32.20;19.87;;;;;;;;;;5015028;28;20206;-81
2022/03/03 07:00:34;;;;;;;29.70;19.50;;;;;;;;;;5013987;28;20213;-81
2022/03/03 07:03:00;;;;;;;28.83;19.50;;;;;;;;;;5016316;28;20693;-81
2022/03/03 07:05:28;;;;;;;29.70;19.50;;;;;;;;;;5015902;28;20284;-81
2022/03/03 07:07:54;;;;;;;32.67;19.70;;;;;;;;;;5019217;28;20175;-81
2022/03/03 07:10:25;;;;;;;34.40;18.77;;;;;;;;;;5018085;28;20198;-81
2022/03/03 07:12:52;;;;;;;30.80;20.03;;;;;;;;;;5004071;28;20175;-81
2022/03/03 07:15:18;;;;;;;33.37;19.97;;;;;;;;;;5025484;28;20206;-81
2022/03/03 07:17:47;;;;;;;32.17;20.13;;;;;;;;;;5028103;28;20190;-81
2022/03/03 07:20:33;;;;;;;31.47;20.37;;;;;;;;;;5027298;28;20191;-81
2022/03/03 07:23:08;;;;;;;30.37;19.43;;;;;;;;;;5020106;28;20202;-81
2022/03/03 07:25:38;;;;;;;28.87;19.90;;;;;;;;;;5029259;28;20229;-81
2022/03/03 07:28:06;;;;;;;35.33;21.37;;;;;;;;;;5027090;28;20182;-81
2022/03/03 07:30:32;;;;;;;31.33;20.00;;;;;;;;;;5026836;28;20254;-80
2022/03/03 07:33:10;;;;;;;31.67;21.30;;;;;;;;;;5025151;28;20177;-82
2022/03/03 07:35:37;;;;;;;32.60;21.27;;;;;;;;;;5025722;28;20690;-82
2022/03/03 07:38:19;;;;;;;34.53;20.60;;;;;;;;;;5024364;28;20179;-82
2022/03/03 07:40:45;;;;;;;34.40;20.93;;;;;;;;;;5025762;28;20179;-82
2022/03/03 07:43:12;;;;;;;32.30;20.93;;;;;;;;;;5022473;28;20175;-82
2022/03/03 07:45:38;;;;;;;28.97;20.07;;;;;;;;;;5027053;28;20237;-81
2022/03/03 07:48:05;;;;;;;30.50;19.43;;;;;;;;;;5030113;28;20175;-81
2022/03/03 07:50:31;;;;;;;28.20;20.07;;;;;;;;;;5030334;28;20203;-81
2022/03/03 07:52:57;;;;;;;33.97;21.33;;;;;;;;;;5025051;28;20184;-81
2022/03/03 07:55:24;;;;;;;28.70;20.47;;;;;;;;;;5028854;28;20271;-81
2022/03/03 07:57:52;;;;;;;35.00;20.37;;;;;;;;;;5030947;28;20246;-81
2022/03/03 08:00:19;;;;;;;29.83;20.13;;;;;;;;;;5030212;28;20182;-81
2022/03/03 08:02:45;;;;;;;31.70;20.07;;;;;;;;;;5029703;28;20480;-81
2022/03/03 08:05:11;;;;;;;32.13;21.27;;;;;;;;;;5030317;28;20203;-81
2022/03/03 08:07:48;;;;;;;29.33;19.90;;;;;;;;;;5030163;28;20207;-85
2022/03/03 08:10:15;;;;;;;29.80;20.83;;;;;;;;;;5026487;28;20174;-81
2022/03/03 08:12:42;;;;;;;31.30;20.70;;;;;;;;;;5030917;28;20187;-81
2022/03/03 08:15:09;;;;;;;29.40;20.50;;;;;;;;;;5027159;28;20207;-81
2022/03/03 08:17:36;;;;;;;28.93;21.07;;;;;;;;;;5031369;28;20202;-81
2022/03/03 08:20:04;;;;;;;29.00;20.17;;;;;;;;;;5031544;28;20236;-81
2022/03/03 08:22:30;;;;;;;28.90;20.43;;;;;;;;;;5029686;28;20191;-81
2022/03/03 08:24:57;;;;;;;31.10;21.03;;;;;;;;;;5029304;28;20203;-81
2022/03/03 08:27:24;;;;;;;36.33;21.53;;;;;;;;;;5029458;28;20191;-80
2022/03/03 08:29:50;;;;;;;30.87;22.30;;;;;;;;;;5030476;28;20214;-81
2022/03/03 08:32:17;;;;;;;35.90;22.17;;;;;;;;;;5029719;28;20318;-81
2022/03/03 08:35:04;;;;;;;37.00;22.70;;;;;;;;;;5028873;28;20268;-81
2022/03/03 08:37:33;;;;;;;31.97;21.90;;;;;;;;;;5028029;28;20188;-81
2022/03/03 08:40:03;;;;;;;36.30;24.37;;;;;;;;;;5025794;28;20172;-82
2022/03/03 08:42:31;;;;;;;34.10;23.40;;;;;;;;;;5027854;28;20233;-81
2022/03/03 08:45:02;;;;;;;33.97;23.80;;;;;;;;;;5025016;28;20204;-81
2022/03/03 08:47:28;;;;;;;31.13;22.63;;;;;;;;;;5028093;28;20168;-82
2022/03/03 08:49:59;;;;;;;37.73;22.70;;;;;;;;;;5022841;28;20183;-81
2022/03/03 08:52:25;;;;;;;33.80;22.50;;;;;;;;;;5024528;28;20180;-81
2022/03/03 08:54:51;;;;;;;35.97;23.33;;;;;;;;;;5024925;28;20188;-81
2022/03/03 08:57:17;;;;;;;34.37;23.40;;;;;;;;;;5025637;28;20600;-81
2022/03/03 08:59:44;;;;;;;40.87;24.87;;;;;;;;;;5022620;28;20183;-81
2022/03/03 09:02:12;;;;;;;35.07;23.67;;;;;;;;;;5024063;28;20273;-81
2022/03/03 09:04:38;;;;;;;36.60;23.67;;;;;;;;;;5022748;28;20903;-81
2022/03/03 09:07:04;;;;;;;43.77;26.10;;;;;;;;;;5024036;28;20204;-81
2022/03/03 09:09:30;;;;;;;39.63;24.80;;;;;;;;;;5023861;28;20552;-81
2022/03/03 09:11:56;;;;;;;41.00;25.63;;;;;;;;;;5022738;28;20179;-82
2022/03/03 09:14:22;;;;;;;43.93;26.53;;;;;;;;;;5022208;28;20173;-81
2022/03/03 09:16:48;;;;;;;43.17;25.77;;;;;;;;;;5021168;28;20388;-81
2022/03/03 09:19:14;;;;;;;42.53;25.30;;;;;;;;;;5024714;28;20248;-82
2022/03/03 09:21:40;;;;;;;45.07;26.33;;;;;;;;;;5032557;28;20206;-81
2022/03/03 09:24:06;;;;;;;47.87;26.50;;;;;;;;;;5029627;28;20176;-81
2022/03/03 09:26:32;;;;;;;45.93;26.77;;;;;;;;;;5051278;23;20223;-83
2022/03/03 09:28:59;;;;;;;45.77;27.03;;;;;;;;;;5017076;28;20171;-81
2022/03/03 09:31:25;;;;;;;44.80;26.13;;;;;;;;;;5034348;28;20219;-80
2022/03/03 09:33:51;;;;;;;40.77;25.73;;;;;;;;;;5034731;28;20187;-81
2022/03/03 09:36:18;;;;;;;41.33;25.90;;;;;;;;;;5027773;28;20205;-81
2022/03/03 09:38:44;;;;;;;41.07;26.10;;;;;;;;;;5016347;28;20232;-82
2022/03/03 09:41:10;;;;;;;44.63;25.83;;;;;;;;;;5014828;28;20201;-81
2022/03/03 09:43:36;;;;;;;39.20;25.83;;;;;;;;;;5011800;28;20190;-81
2022/03/03 09:46:02;;;;;;;43.03;24.93;;;;;;;;;;5014195;28;20221;-82
2022/03/03 09:48:28;;;;;;;42.07;25.23;;;;;;;;;;4997616;28;20184;-81
2022/03/03 09:50:54;;;;;;;47.73;26.80;;;;;;;;;;5016149;28;20247;-81
2022/03/03 09:53:20;;;;;;;45.77;26.60;;;;;;;;;;4998321;28;20178;-81
2022/03/03 09:55:47;;;;;;;40.80;25.30;;;;;;;;;;5016179;28;20229;-81
2022/03/03 09:58:13;;;;;;;37.03;25.37;;;;;;;;;;4993977;28;20183;-81
2022/03/03 10:00:41;;;;;;;33.23;23.50;;;;;;;;;;5001637;28;20175;-81
2022/03/03 10:03:09;;;;;;;33.37;23.17;;;;;;;;;;5016404;28;20206;-81
2022/03/03 10:05:35;;;;;;;34.43;23.27;;;;;;;;;;5013340;28;20210;-81
2022/03/03 10:08:04;;;;;;;32.63;23.47;;;;;;;;;;4998024;28;20182;-81
2022/03/03 10:10:31;;;;;;;33.57;23.40;;;;;;;;;;5014878;28;20249;-82
2022/03/03 10:12:57;;;;;;;38.17;23.27;;;;;;;;;;5015403;28;20183;-82
2022/03/03 10:15:30;;;;;;;35.17;23.27;;;;;;;;;;5015114;28;20191;-82
2022/03/03 10:17:57;;;;;;;31.27;23.97;;;;;;;;;;5016318;28;20183;-81
2022/03/03 10:20:23;;;;;;;33.27;24.57;;;;;;;;;;5015540;28;20217;-82
2022/03/03 10:22:59;;;;;;;32.57;23.83;;;;;;;;;;5017064;28;20246;-83
2022/03/03 10:25:33;;;;;;;33.77;23.07;;;;;;;;;;5017242;28;20222;-83
2022/03/03 10:28:19;;;;;;;29.83;22.67;;;;;;;;;;5017200;28;20254;-81
2022/03/03 10:30:58;;;;;;;34.00;23.13;;;;;;;;;;5015552;28;20186;-82
2022/03/03 10:33:25;;;;;;;33.93;23.37;;;;;;;;;;5017310;28;20574;-81
2022/03/03 10:35:58;;;;;;;35.20;24.90;;;;;;;;;;5015756;28;20203;-82
2022/03/03 10:38:24;;;;;;;35.50;24.60;;;;;;;;;;5016431;28;20191;-82
2022/03/03 10:40:50;;;;;;;45.67;25.87;;;;;;;;;;5000679;28;20652;-82
2022/03/03 10:43:16;;;;;;;38.20;24.20;;;;;;;;;;5020339;28;20203;-82
2022/03/03 10:45:59;;;;;;;35.47;24.10;;;;;;;;;;5019765;28;20219;-81
2022/03/03 10:48:25;;;;;;;37.70;25.53;;;;;;;;;;5018428;28;20267;-81
2022/03/03 10:50:54;;;;;;;35.63;24.47;;;;;;;;;;5000900;28;20173;-82
2022/03/03 10:53:21;;;;;;;40.23;25.60;;;;;;;;;;5018305;28;20185;-82
2022/03/03 10:56:04;;;;;;;35.33;24.77;;;;;;;;;;5018263;28;20227;-83
2022/03/03 10:58:50;;;;;;;37.83;25.97;;;;;;;;;;5017839;28;20187;-82
2022/03/03 11:01:17;;;;;;;44.13;26.00;;;;;;;;;;5018769;28;20180;-82
2022/03/03 11:03:49;;;;;;;39.77;25.93;;;;;;;;;;5019657;28;20197;-83
2022/03/03 11:06:16;;;;;;;39.43;24.40;;;;;;;;;;5019120;28;20375;-82
2022/03/03 11:08:42;;;;;;;37.47;25.27;;;;;;;;;;5019176;28;20177;-83
2022/03/03 11:11:08;;;;;;;37.33;25.57;;;;;;;;;;5019418;28;20273;-83
2022/03/03 11:13:35;;;;;;;40.57;25.07;;;;;;;;;;5018071;28;20185;-83
2022/03/03 11:16:02;;;;;;;35.63;25.70;;;;;;;;;;5001525;28;20205;-81
2022/03/03 11:18:29;;;;;;;45.07;28.00;;;;;;;;;;5017675;28;20607;-82
2022/03/03 11:20:55;;;;;;;46.77;28.50;;;;;;;;;;5019426;28;20182;-83
2022/03/03 11:23:21;;;;;;;48.67;26.87;;;;;;;;;;5018561;28;20178;-82
2022/03/03 11:25:49;;;;;;;44.23;28.87;;;;;;;;;;5000558;28;20272;-83
2022/03/03 11:28:15;;;;;;;43.53;27.87;;;;;;;;;;4998820;28;20180;-84
2022/03/03 11:30:48;;;;;;;44.87;29.43;;;;;;;;;;5017114;28;20228;-85
2022/03/03 11:33:22;;;;;;;43.53;28.80;;;;;;;;;;5019580;28;20179;-83
2022/03/03 11:35:52;;;;;;;46.93;29.03;;;;;;;;;;5018832;28;20207;-83
2022/03/03 11:38:19;;;;;;;43.17;27.67;;;;;;;;;;5017718;28;20270;-84
2022/03/03 11:40:52;;;;;;;42.10;26.67;;;;;;;;;;5019125;28;20612;-83
2022/03/03 11:43:18;;;;;;;42.53;26.27;;;;;;;;;;5019246;28;20289;-84
2022/03/03 11:45:49;;;;;;;35.37;25.20;;;;;;;;;;4994983;28;20301;-84
2022/03/03 11:48:16;;;;;;;38.50;25.13;;;;;;;;;;5001591;28;20269;-83
2022/03/03 11:50:42;;;;;;;33.07;23.90;;;;;;;;;;5019369;28;20230;-84
2022/03/03 11:53:11;;;;;;;40.20;23.90;;;;;;;;;;5001276;28;20185;-84
2022/03/03 11:55:48;;;;;;;35.70;23.37;;;;;;;;;;5019242;28;20219;-84
2022/03/03 11:58:26;;;;;;;31.80;22.37;;;;;;;;;;5001598;28;20186;-84
2022/03/03 12:01:02;;;;;;;36.40;24.27;;;;;;;;;;5016638;28;20264;-81
2022/03/03 12:03:31;;;;;;;33.90;22.27;;;;;;;;;;5002154;28;20222;-82
2022/03/03 12:06:04;;;;;;;34.67;21.73;;;;;;;;;;5015581;28;20220;-82
2022/03/03 12:08:31;;;;;;;30.37;21.67;;;;;;;;;;5015431;28;20186;-82
2022/03/03 12:10:57;;;;;;;36.03;23.60;;;;;;;;;;5014692;28;20236;-83
2022/03/03 12:13:25;;;;;;;43.53;26.23;;;;;;;;;;5000526;28;20269;-84
2022/03/03 12:16:09;;;;;;;43.20;25.70;;;;;;;;;;5000069;28;20204;-84
2022/03/03 12:18:36;;;;;;;42.27;25.30;;;;;;;;;;5018910;28;20180;-84
2022/03/03 12:21:34;;;;;;;40.27;26.73;;;;;;;;;;5018477;28;20197;-85
2022/03/03 12:24:13;;;;;;;42.30;26.00;;;;;;;;;;4983837;28;20215;-83
2022/03/03 12:27:00;;;;;;;37.10;25.10;;;;;;;;;;5018411;28;20214;-84
2022/03/03 12:29:36;;;;;;;34.53;23.83;;;;;;;;;;5016428;28;20189;-86
2022/03/03 12:32:21;;;;;;;36.03;24.53;;;;;;;;;;5016581;28;20669;-85
2022/03/03 12:34:47;;;;;;;35.07;23.80;;;;;;;;;;5004774;28;20554;-84
2022/03/03 12:37:13;;;;;;;36.97;22.80;;;;;;;;;;5010687;28;20207;-85
2022/03/03 12:39:47;;;;;;;33.63;22.10;;;;;;;;;;5003767;28;20198;-85
2022/03/03 12:42:16;;;;;;;38.27;23.47;;;;;;;;;;5002319;28;20562;-86
2022/03/03 12:44:42;;;;;;;38.70;23.87;;;;;;;;;;5002147;28;20221;-85
2022/03/03 12:47:08;;;;;;;33.97;23.30;;;;;;;;;;5017485;28;20206;-84
2022/03/03 12:49:40;;;;;;;38.57;22.77;;;;;;;;;;5015729;28;20245;-86
2022/03/03 12:52:06;;;;;;;34.83;22.93;;;;;;;;;;5008201;28;20183;-84
2022/03/03 12:54:32;;;;;;;30.13;20.80;;;;;;;;;;5017617;28;20191;-83
2022/03/03 12:57:03;;;;;;;30.33;20.20;;;;;;;;;;5000466;28;20233;-83
2022/03/03 12:59:31;;;;;;;32.33;22.00;;;;;;;;;;4995093;28;20290;-85
2022/03/03 13:01:57;;;;;;;30.23;21.67;;;;;;;;;;4998142;28;20562;-85
2022/03/03 13:04:24;;;;;;;25.03;19.17;;;;;;;;;;5001217;28;20235;-84
2022/03/03 13:07:05;;;;;;;27.37;18.33;;;;;;;;;;5018625;28;20266;-86
2022/03/03 13:09:31;;;;;;;25.43;18.83;;;;;;;;;;5020303;28;20182;-86
2022/03/03 13:11:57;;;;;;;28.00;19.17;;;;;;;;;;5019331;28;20178;-85
2022/03/03 13:14:23;;;;;;;24.37;18.13;;;;;;;;;;5003107;28;20179;-85
2022/03/03 13:16:49;;;;;;;30.77;19.40;;;;;;;;;;5021212;28;20218;-85
2022/03/03 13:19:15;;;;;;;31.33;22.37;;;;;;;;;;5002141;28;20179;-85
2022/03/03 13:21:43;;;;;;;31.23;20.60;;;;;;;;;;5017661;28;20219;-85
2022/03/03 13:24:09;;;;;;;28.17;20.40;;;;;;;;;;5016940;28;20218;-85
2022/03/03 13:26:46;;;;;;;29.87;20.23;;;;;;;;;;5016127;28;20219;-85
2022/03/03 13:29:13;;;;;;;27.73;19.23;;;;;;;;;;4998924;28;20179;-86
2022/03/03 13:31:41;;;;;;;32.87;21.47;;;;;;;;;;5019011;28;20328;-84
2022/03/03 13:34:11;;;;;;;28.83;20.33;;;;;;;;;;5018340;28;20672;-85
2022/03/03 13:36:39;;;;;;;43.83;27.00;;;;;;;;;;5016901;28;20297;-86
2022/03/03 13:39:23;;;;;;;34.40;21.70;;;;;;;;;;5019543;28;20186;-85
2022/03/03 13:41:59;;;;;;;30.90;20.33;;;;;;;;;;5017178;28;20182;-83
2022/03/03 13:44:25;;;;;;;31.90;21.53;;;;;;;;;;5003527;28;20175;-84
2022/03/03 13:47:01;;;;;;;28.27;20.07;;;;;;;;;;5000103;28;20234;-83
2022/03/03 13:49:28;;;;;;;36.23;20.93;;;;;;;;;;4999805;28;20189;-85
2022/03/03 13:52:13;;;;;;;27.20;19.63;;;;;;;;;;5000255;28;20209;-83
2022/03/03 13:54:50;;;;;;;33.40;20.87;;;;;;;;;;5014368;28;20183;-87
2022/03/03 13:57:34;;;;;;;30.90;21.57;;;;;;;;;;5000364;28;20205;-87
2022/03/03 14:00:09;;;;;;;31.57;20.97;;;;;;;;;;5012805;28;20189;-85
2022/03/03 14:02:42;;;;;;;31.97;21.70;;;;;;;;;;5005804;28;20178;-85
2022/03/03 14:05:24;;;;;;;;;;;;;;;;;;;;;
2022/03/03 14:12:19;;;;;;;;;;;;;;;;;;;;;
2022/03/03 14:15:29;;;;;;;;;;;;;;;;;;;;;
2022/03/03 14:31:02;;;;;;;;;;;;;;;;;;;;;
2022/03/03 15:29:26;;;;;;;21.00;15.80;;;;;;;;;;5372086;22;20504;-83
2022/03/03 15:31:52;;;;;;;23.57;15.97;;;;;;;;;;5020678;28;20173;-84
2022/03/03 15:37:04;;;;;;;20.93;15.63;;;;;;;;;;5010686;28;20625;-85
2022/03/03 15:39:30;;;;;;;27.37;17.20;;;;;;;;;;5010618;28;20188;-85
2022/03/03 15:41:58;;;;;;;26.30;17.77;;;;;;;;;;4984231;28;20242;-86
2022/03/03 15:44:40;;;;;;;;;;;;;;;;;;;;;
2022/03/03 15:47:06;;;;;;;28.80;19.00;;;;;;;;;;5097830;22;20288;-84
2022/03/03 15:49:46;;;;;;;;;;;;;;;;;;;;;